Flight Track Log - Related Links

Times and Time Zones

All times are in EDT time to prevent confusion due to time zone crossing. See the SWA3313 flight status page for this flight to view local times or setup timezone preferences in your user account.

Time Position Orientation Groundspeed Altitude Reporting Facility
EDT Latitude Longitude Course Direction KTS MPH feet Rate Location/Type
Thu 05:57:27 PM 42.9500 -71.4333 340° North 148 170 1,300  Level KA90
Thu 05:58:03 PM 42.9833 -71.4500 340° North 181 208 2,300 2,198 Climbing KA90
Thu 05:59:08 PM 43.0272 -71.4178 28° Northeast 228 262 5,000 2,400 Climbing Boston Center
Thu 06:00:08 PM 43.0408 -71.3153 80° East 234 269 7,300 3,100 Climbing Boston Center
Thu 06:01:08 PM 43.0522 -71.1956 83° East 279 321 11,200 2,800 Climbing Boston Center
Thu 06:02:08 PM 43.0322 -71.0794 103° East 349 402 12,900 2,550 Climbing Boston Center
Thu 06:03:08 PM 42.9636 -70.9336 123° Southeast 386 444 16,300 3,300 Climbing Boston Center
Thu 06:04:08 PM 42.8669 -70.8850 160° South 367 422 19,500 2,350 Climbing Boston Center
Thu 06:05:08 PM 42.7892 -70.9775 221° Southwest 303 349 21,000 1,750 Climbing Boston Center
Thu 06:06:08 PM 42.6856 -71.0306 201° Southwest 356 410 23,000 1,000 Climbing Boston Center
Thu 06:07:08 PM 42.5797 -71.0811 199° South 392 451 23,000  Level Boston Center
Thu 06:08:08 PM 42.4742 -71.1339 200° South 406 467 23,000 1,200 Level Boston Center
Thu 06:09:08 PM 42.3981 -71.2283 223° Southwest 385 443 25,400 2,200 Climbing Boston Center
Thu 06:10:08 PM 42.3597 -71.3556 248° West 358 412 27,400 1,250 Climbing Boston Center
Thu 06:11:08 PM 42.3422 -71.4878 260° West 351 404 27,900 1,050 Climbing Boston Center
Thu 06:12:08 PM 42.3244 -71.6172 260° West 351 404 29,500 1,650 Climbing Boston Center
Thu 06:13:08 PM 42.2814 -71.7386 244° Southwest 361 415 31,200 1,250 Climbing Boston Center
Thu 06:14:08 PM 42.2364 -71.8625 244° Southwest 367 422 32,000 800 Climbing Boston Center
Thu 06:15:08 PM 42.1931 -71.9833 244° Southwest 362 417 32,800 909 Climbing Boston Center
Thu 06:16:20 PM 42.1497 -72.1069 245° Southwest 362 417 34,000 545 Climbing Boston Center
Thu 06:17:20 PM 42.0981 -72.2556 245° Southwest 362 417 34,000  Level Boston Center
Thu 06:18:20 PM 42.0439 -72.3703 238° Southwest 362 417 34,000  Level Boston Center
Thu 06:19:20 PM 41.9753 -72.4764 229° Southwest 368 423 34,000  Level Boston Center
Thu 06:20:20 PM 41.9125 -72.5850 232° Southwest 373 429 34,000  Level Boston Center
Thu 06:21:20 PM 41.8458 -72.6825 227° Southwest 368 423 34,000  Level Boston Center
Thu 06:22:32 PM 41.7789 -72.7936 231° Southwest 368 423 34,000  Level Boston Center
Thu 06:23:32 PM 41.6992 -72.9239 231° Southwest 380 437 34,000  Level Boston Center
Thu 06:24:32 PM 41.6319 -73.0289 229° Southwest 380 437 34,000  Level Boston Center
Thu 06:25:32 PM 41.5647 -73.1392 231° Southwest 380 437 34,000  Level Boston Center
Thu 06:26:32 PM 41.5078 -73.2272 229° Southwest 368 423 34,000  Level Boston Center
Thu 06:27:32 PM 41.4381 -73.3400 231° Southwest 373 429 34,000  Level Boston Center
Thu 06:29:05 PM 41.3233 -73.5228 230° Southwest 398 458 34,000  Level New York Center
Thu 06:30:06 PM 41.2539 -73.6331 230° Southwest 398 458 34,000  Level New York Center
Thu 06:31:04 PM 41.1867 -73.7458 232° Southwest 398 458 34,000  Level New York Center
Thu 06:32:06 PM 41.1192 -73.8558 231° Southwest 398 458 34,000  Level New York Center
Thu 06:33:06 PM 41.0558 -73.9714 234° Southwest 393 452 34,000  Level New York Center
Thu 06:34:05 PM 40.9861 -74.0833 230° Southwest 388 447 34,000 -202 Level New York Center
Thu 06:35:05 PM 40.9203 -74.1928 231° Southwest 388 447 33,600 -1,636 Descending New York Center
Thu 06:36:06 PM 40.8483 -74.3017 229° Southwest 388 447 30,700 -2,826 Descending New York Center
Thu 06:37:06 PM 40.7825 -74.4106 231° Southwest 388 447 27,900 -1,835 Descending New York Center
Thu 06:38:07 PM 40.7144 -74.5219 231° Southwest 388 447 27,000 -950 Descending New York Center
Thu 06:39:06 PM 40.6461 -74.6411 233° Southwest 393 452 26,000 -1,000 Descending New York Center
Thu 06:40:07 PM 40.5758 -74.7519 230° Southwest 398 458 25,000 -1,059 Descending New York Center
Thu 06:41:05 PM 40.5033 -74.8597 229° Southwest 398 458 23,900 -1,068 Descending New York Center
Thu 06:42:05 PM 40.4289 -74.9617 226° Southwest 398 458 22,900 -1,200 Descending New York Center
Thu 06:43:05 PM 40.3564 -75.0661 228° Southwest 398 458 21,500 -1,736 Descending New York Center
Thu 06:44:06 PM 40.2817 -75.1678 226° Southwest 392 451 19,400 -1,230 Descending New York Center
Thu 06:45:07 PM 40.2244 -75.2511 228° Southwest 374 430 19,000 -203 Descending New York Center
Thu 06:46:04 PM 40.1564 -75.3417 225° Southwest 353 406 19,000  Level New York Center
Thu 06:47:05 PM 40.0836 -75.4428 227° Southwest 353 406 19,000  Level New York Center
Thu 06:48:05 PM 40.0172 -75.5358 227° Southwest 353 406 19,000  Level New York Center
Thu 06:49:06 PM 39.9511 -75.6233 225° Southwest 353 406 19,000 -585 Level New York Center
Thu 06:50:08 PM 39.8928 -75.7222 232° Southwest 354 407 17,800 -1,059 Descending New York Center
Thu 06:51:05 PM 39.8386 -75.8211 235° Southwest 347 399 16,900 -1,571 Descending New York Center
Thu 06:52:56 PM 39.7500 -76.0000 237° Southwest 317 365 13,400 -1,684 Descending Potomac TRACON
Thu 06:53:56 PM 39.7000 -76.1000 237° Southwest 296 341 12,100 -1,150 Descending Potomac TRACON
Thu 06:54:56 PM 39.6500 -76.1667 226° Southwest 277 319 11,100 -947 Descending Potomac TRACON
Thu 06:55:50 PM 39.6167 -76.2500 243° Southwest 271 312 10,300 -947 Descending Potomac TRACON
Thu 06:56:50 PM 39.5833 -76.3167 237° Southwest 268 308 9,300 -1,050 Descending Potomac TRACON
Thu 06:57:50 PM 39.5500 -76.4167 247° West 265 305 8,200 -1,041 Descending Potomac TRACON
Thu 06:58:51 PM 39.5333 -76.5167 258° West 268 308 7,200 -992 Descending Potomac TRACON
Thu 06:59:57 PM 39.4667 -76.5333 191° South 304 350 6,100 -1,000 Descending Potomac TRACON
Thu 07:00:57 PM 39.4000 -76.5000 159° South 296 341 5,100 -750 Descending Potomac TRACON
Thu 07:01:57 PM 39.3167 -76.4667 163° South 284 327 4,600 -545 Descending Potomac TRACON
Thu 07:02:58 PM 39.2333 -76.4500 171° South 283 326 4,000 -590 Descending Potomac TRACON

Login

Don't have an account? Register now (free) for customized features, flight alerts, and more!